Impacts TAF Board
For situational awareness. Not to be used for flight planning purposes.
IDs:

KRSW - Ft Myers/SW Florida, FL, US

Issued at 2321 UTC 18 Aug 2019
Updated at 0526 UTC 19 Aug 2019
Potential Impact None Slight Moderate High
Time0453Z 19/06Z 19/07Z 19/08Z 19/09Z 19/10Z 19/11Z 19/12Z 19/13Z 19/14Z 19/15Z 19/16Z 19/17Z 19/18Z>>
Type OBS PRVL PRVL PRVL PRVL PRVL PRVL PRVL PRVL PRVL PRVL PRVL PRVL PRVL
VIS 10 >6 >6 >6 >6 >6 >6 >6 >6 >6 >6 >6 >6 >6
CIG -- -- -- -- -- -- -- -- -- -- -- -- -- --
Cover CLR SCT SCT SCT SCT SCT SCT SCT SCT SCT SCT SCT SCT SCT
FltCat VFR VFR VFR VFR VFR VFR VFR VFR VFR VFR VFR VFR VFR VFR
WX -- -- -- -- -- -- -- -- -- -- -- -- -- --
WDir 60 VRB VRB VRB VRB VRB VRB VRB VRB VRB 100 100 100 100
WSpd 5 3 3 3 3 3 3 3 3 3 8 8 8 8
WGst -- -- -- -- -- -- -- -- -- -- -- -- -- --
Raw TAF
KRSW 182321Z 1900/1924 28008KT P6SM VCTS SCT050CB BKN250
  TEMPO 1900/1901 VRB15G25KT 3SM TSRA BKN030CB
  FM190300 VRB03KT P6SM FEW030 SCT250
  FM191500 10008KT P6SM SCT035 SCT250
  FM192000 07008KT P6SM VCTS SCT050CB SCT250


Raw METAR
KRSW 190453Z AUTO 06005KT 10SM CLR 26/22 A3008 RMK AO2 SLP185 T02560222 403500239
KRSW 190353Z AUTO 06004KT 10SM CLR 26/22 A3009 RMK AO2 SLP186 T02560222
KRSW 190253Z 36003KT 10SM CLR 26/22 A3009 RMK AO2 SLP185 60000 T02560217 53004

METAR Board
Radar Display
Forecast Discussion
For situational awareness. Not to be used for flight planning purposes.